首页
METAR-TAF:

METAR-TAF

机场 :

Cherry Point, 北卡罗来纳州, 美国

纬度: 34-53-52N, 经度: 076-52-51W, 海拔: 8米

当前天气观测

该预报发布于16分钟前的01:54 UTC
风速11节,风向南转西南
温度 28°C
湿度 89%
气压 1016 hPa
能見度: 16.1公里
天空无云

METAR: KNKT 220154Z 21011KT 10SM CLR 28/26 A3001 RMK AO2 SLP157 T02780256 PNO

时间: 22:10 (02:10 UTC)

预报

预报有效从21日的 21点(UTC)到 22日的 21点(UTC)
风速12节,风向南转西南,有时为20节阵风
多云层高于5000英尺
短暂存在
从 22日的 00点(UTC)到 22日的 04点(UTC)
风速6节,风向多变,有时为30节阵风
能見度: 9000
多云层高于5000英尺, 积雨云.
雷暴, 小雨, 轻雾
从 22日的 0400点(UTC)
能見度: 9000
多云层高于5000英尺, 积雨云.
附近有雷暴, 轻雾
短暂存在
从 22日的 09点(UTC)到 22日的 15点(UTC)
风速6节,风向多变,有时为30节阵风
能見度: 9000
多云层高于5000英尺, 积雨云.
雷暴, 雨, 轻雾

TAF: KNKT 2121/2221 20012G20KT BKN050 QNH2995INS TEMPO 2200/2204 VRB06G30KT 9000 -TSRA BR BKN050CB FM220400 9000 VCTS BR BKN050CB QNH2994INS TEMPO 2209/2215 VRB06G30KT 9000 TSRA BR BKN050CB T24/2209Z T30/2216Z

超过4000个机场的气象观测和天气预报(METAR&TAF报告)。

可查询的气象台以黄色和红色小点在地图上表示。

将鼠标移到小点上方,可查看气象台名称。

然后点击查看天气观测和预报。

如需切换地图:点击带黑十字的绿色按钮放大地图;点击带横线的绿色按钮缩小地图;或者点击绿色箭头查看邻近地区的地图。


METAR-TAF: